sensor_id;sensor_type;location;lat;lon;timestamp;temperature;humidity
26081;DHT22;13991;51.174;4.438;2023-08-06T00:00:44;17.30;99.90
26081;DHT22;13991;51.174;4.438;2023-08-06T00:03:13;17.30;99.90
26081;DHT22;13991;51.174;4.438;2023-08-06T00:05:42;17.20;99.90
26081;DHT22;13991;51.174;4.438;2023-08-06T00:08:11;17.30;99.90
26081;DHT22;13991;51.174;4.438;2023-08-06T00:10:36;17.30;99.90
26081;DHT22;13991;51.174;4.438;2023-08-06T00:13:02;17.30;99.90
26081;DHT22;13991;51.174;4.438;2023-08-06T00:15:28;17.30;99.90
26081;DHT22;13991;51.174;4.438;2023-08-06T00:17:55;17.30;99.90
26081;DHT22;13991;51.174;4.438;2023-08-06T00:20:21;17.30;99.90
26081;DHT22;13991;51.174;4.438;2023-08-06T00:22:46;17.30;99.90
26081;DHT22;13991;51.174;4.438;2023-08-06T00:25:12;17.30;99.90
26081;DHT22;13991;51.174;4.438;2023-08-06T00:27:39;17.40;99.90
26081;DHT22;13991;51.174;4.438;2023-08-06T00:30:06;17.40;99.90
26081;DHT22;13991;51.174;4.438;2023-08-06T00:32:33;17.40;99.90
26081;DHT22;13991;51.174;4.438;2023-08-06T00:35:02;17.30;99.90
26081;DHT22;13991;51.174;4.438;2023-08-06T00:37:28;17.20;99.90
26081;DHT22;13991;51.174;4.438;2023-08-06T00:39:55;17.20;99.90
26081;DHT22;13991;51.174;4.438;2023-08-06T00:42:22;17.20;99.90
26081;DHT22;13991;51.174;4.438;2023-08-06T00:44:48;17.20;99.90
26081;DHT22;13991;51.174;4.438;2023-08-06T00:47:14;17.20;99.90
26081;DHT22;13991;51.174;4.438;2023-08-06T00:49:40;17.20;99.90
26081;DHT22;13991;51.174;4.438;2023-08-06T00:52:08;17.30;99.90
26081;DHT22;13991;51.174;4.438;2023-08-06T00:54:35;17.30;99.90
26081;DHT22;13991;51.174;4.438;2023-08-06T00:57:02;17.30;99.90
26081;DHT22;13991;51.174;4.438;2023-08-06T00:59:31;17.40;99.90
26081;DHT22;13991;51.174;4.438;2023-08-06T01:01:57;17.40;99.90
26081;DHT22;13991;51.174;4.438;2023-08-06T01:04:24;17.30;99.90
26081;DHT22;13991;51.174;4.438;2023-08-06T01:13:32;17.40;99.90
26081;DHT22;13991;51.174;4.438;2023-08-06T01:15:56;17.30;99.90
26081;DHT22;13991;51.174;4.438;2023-08-06T01:18:27;17.40;99.90
26081;DHT22;13991;51.174;4.438;2023-08-06T01:20:54;17.30;99.90
26081;DHT22;13991;51.174;4.438;2023-08-06T01:23:20;17.40;99.90
26081;DHT22;13991;51.174;4.438;2023-08-06T01:28:52;17.30;99.90
26081;DHT22;13991;51.174;4.438;2023-08-06T01:31:24;17.40;99.90
26081;DHT22;13991;51.174;4.438;2023-08-06T01:33:53;17.30;99.90
26081;DHT22;13991;51.174;4.438;2023-08-06T01:36:20;17.30;99.90
26081;DHT22;13991;51.174;4.438;2023-08-06T01:38:46;17.30;99.90
26081;DHT22;13991;51.174;4.438;2023-08-06T01:41:12;17.40;99.90
26081;DHT22;13991;51.174;4.438;2023-08-06T01:43:38;17.40;99.90
26081;DHT22;13991;51.174;4.438;2023-08-06T01:46:04;17.40;99.90
26081;DHT22;13991;51.174;4.438;2023-08-06T01:48:29;17.40;99.90
26081;DHT22;13991;51.174;4.438;2023-08-06T01:50:55;17.40;99.90
26081;DHT22;13991;51.174;4.438;2023-08-06T01:53:21;17.40;99.90
26081;DHT22;13991;51.174;4.438;2023-08-06T01:55:50;17.40;99.90
26081;DHT22;13991;51.174;4.438;2023-08-06T01:58:15;17.50;99.90
26081;DHT22;13991;51.174;4.438;2023-08-06T02:00:43;17.50;99.90
26081;DHT22;13991;51.174;4.438;2023-08-06T02:03:09;17.50;99.90
26081;DHT22;13991;51.174;4.438;2023-08-06T02:05:35;17.50;99.90
26081;DHT22;13991;51.174;4.438;2023-08-06T02:08:00;17.50;99.90
26081;DHT22;13991;51.174;4.438;2023-08-06T02:10:26;17.40;99.90
26081;DHT22;13991;51.174;4.438;2023-08-06T02:12:52;17.50;99.90
26081;DHT22;13991;51.174;4.438;2023-08-06T02:15:20;17.40;99.90
26081;DHT22;13991;51.174;4.438;2023-08-06T02:17:45;17.40;99.90
26081;DHT22;13991;51.174;4.438;2023-08-06T02:20:12;17.40;99.90
26081;DHT22;13991;51.174;4.438;2023-08-06T02:22:38;17.40;99.90
26081;DHT22;13991;51.174;4.438;2023-08-06T02:25:05;17.40;99.90
26081;DHT22;13991;51.174;4.438;2023-08-06T02:27:31;17.40;99.90
26081;DHT22;13991;51.174;4.438;2023-08-06T02:29:58;17.40;99.90
26081;DHT22;13991;51.174;4.438;2023-08-06T02:32:25;17.30;99.90
26081;DHT22;13991;51.174;4.438;2023-08-06T02:34:52;17.40;99.90
26081;DHT22;13991;51.174;4.438;2023-08-06T02:37:19;17.40;99.90
26081;DHT22;13991;51.174;4.438;2023-08-06T02:39:44;17.40;99.90
26081;DHT22;13991;51.174;4.438;2023-08-06T02:42:10;17.30;99.90
26081;DHT22;13991;51.174;4.438;2023-08-06T02:44:36;17.40;99.90
26081;DHT22;13991;51.174;4.438;2023-08-06T02:47:03;17.30;99.90
26081;DHT22;13991;51.174;4.438;2023-08-06T02:49:30;17.20;99.90
26081;DHT22;13991;51.174;4.438;2023-08-06T02:51:56;16.90;99.90
26081;DHT22;13991;51.174;4.438;2023-08-06T02:54:22;16.90;99.90
26081;DHT22;13991;51.174;4.438;2023-08-06T02:56:50;16.80;99.90
26081;DHT22;13991;51.174;4.438;2023-08-06T02:59:17;16.90;99.90
26081;DHT22;13991;51.174;4.438;2023-08-06T03:01:43;16.70;99.90
26081;DHT22;13991;51.174;4.438;2023-08-06T03:04:08;16.80;99.90
26081;DHT22;13991;51.174;4.438;2023-08-06T03:06:34;16.70;99.90
26081;DHT22;13991;51.174;4.438;2023-08-06T03:09:00;16.70;99.90
26081;DHT22;13991;51.174;4.438;2023-08-06T03:11:25;16.70;99.90
26081;DHT22;13991;51.174;4.438;2023-08-06T03:13:51;16.70;99.90
26081;DHT22;13991;51.174;4.438;2023-08-06T03:16:18;16.80;99.90
26081;DHT22;13991;51.174;4.438;2023-08-06T03:18:46;16.70;99.90
26081;DHT22;13991;51.174;4.438;2023-08-06T03:21:13;16.70;99.90
26081;DHT22;13991;51.174;4.438;2023-08-06T03:23:39;16.60;99.90
26081;DHT22;13991;51.174;4.438;2023-08-06T03:26:05;16.60;99.90
26081;DHT22;13991;51.174;4.438;2023-08-06T03:28:31;16.60;99.90
26081;DHT22;13991;51.174;4.438;2023-08-06T03:31:04;16.80;99.90
26081;DHT22;13991;51.174;4.438;2023-08-06T03:33:31;16.60;99.90
26081;DHT22;13991;51.174;4.438;2023-08-06T03:35:58;16.70;99.90
26081;DHT22;13991;51.174;4.438;2023-08-06T03:38:25;16.60;99.90
26081;DHT22;13991;51.174;4.438;2023-08-06T03:40:51;16.80;99.90
26081;DHT22;13991;51.174;4.438;2023-08-06T03:43:18;16.80;99.90
26081;DHT22;13991;51.174;4.438;2023-08-06T03:45:45;16.70;99.90
26081;DHT22;13991;51.174;4.438;2023-08-06T03:48:11;16.40;99.90
26081;DHT22;13991;51.174;4.438;2023-08-06T03:50:37;16.40;99.90
26081;DHT22;13991;51.174;4.438;2023-08-06T03:53:11;16.10;99.90
26081;DHT22;13991;51.174;4.438;2023-08-06T03:55:37;16.20;99.90
26081;DHT22;13991;51.174;4.438;2023-08-06T03:58:03;16.30;99.90
26081;DHT22;13991;51.174;4.438;2023-08-06T04:00:36;16.30;99.90
26081;DHT22;13991;51.174;4.438;2023-08-06T04:03:05;16.40;99.90
26081;DHT22;13991;51.174;4.438;2023-08-06T04:05:31;16.30;99.90
26081;DHT22;13991;51.174;4.438;2023-08-06T04:07:58;16.20;99.90
26081;DHT22;13991;51.174;4.438;2023-08-06T04:10:25;16.20;99.90
26081;DHT22;13991;51.174;4.438;2023-08-06T04:12:52;16.10;99.90
26081;DHT22;13991;51.174;4.438;2023-08-06T04:15:17;16.10;99.90
26081;DHT22;13991;51.174;4.438;2023-08-06T04:17:54;16.20;99.90
26081;DHT22;13991;51.174;4.438;2023-08-06T04:20:23;16.20;99.90
26081;DHT22;13991;51.174;4.438;2023-08-06T04:22:50;16.10;99.90
26081;DHT22;13991;51.174;4.438;2023-08-06T04:25:15;16.20;99.90
26081;DHT22;13991;51.174;4.438;2023-08-06T04:27:47;16.10;99.90
26081;DHT22;13991;51.174;4.438;2023-08-06T04:30:14;16.00;99.90
26081;DHT22;13991;51.174;4.438;2023-08-06T04:32:41;15.90;99.90
26081;DHT22;13991;51.174;4.438;2023-08-06T04:35:10;15.80;99.90
26081;DHT22;13991;51.174;4.438;2023-08-06T04:37:36;15.50;99.90
26081;DHT22;13991;51.174;4.438;2023-08-06T04:40:02;15.50;99.90
26081;DHT22;13991;51.174;4.438;2023-08-06T04:42:28;15.40;99.90
26081;DHT22;13991;51.174;4.438;2023-08-06T04:44:53;15.30;99.90
26081;DHT22;13991;51.174;4.438;2023-08-06T04:47:20;15.30;99.90
26081;DHT22;13991;51.174;4.438;2023-08-06T04:49:48;15.20;99.90
26081;DHT22;13991;51.174;4.438;2023-08-06T04:52:15;15.10;99.90
26081;DHT22;13991;51.174;4.438;2023-08-06T04:54:44;15.10;99.90
26081;DHT22;13991;51.174;4.438;2023-08-06T04:57:09;15.00;99.90
26081;DHT22;13991;51.174;4.438;2023-08-06T04:59:36;15.10;99.90
26081;DHT22;13991;51.174;4.438;2023-08-06T05:02:02;15.10;99.90
26081;DHT22;13991;51.174;4.438;2023-08-06T05:04:28;15.20;99.90
26081;DHT22;13991;51.174;4.438;2023-08-06T05:06:54;15.20;99.90
26081;DHT22;13991;51.174;4.438;2023-08-06T05:09:20;15.30;99.90
26081;DHT22;13991;51.174;4.438;2023-08-06T05:11:47;15.10;99.90
26081;DHT22;13991;51.174;4.438;2023-08-06T05:14:13;15.10;99.90
26081;DHT22;13991;51.174;4.438;2023-08-06T05:16:39;15.00;99.90
26081;DHT22;13991;51.174;4.438;2023-08-06T05:19:06;15.00;99.90
26081;DHT22;13991;51.174;4.438;2023-08-06T05:21:32;15.00;99.90
26081;DHT22;13991;51.174;4.438;2023-08-06T05:23:58;15.10;99.90
26081;DHT22;13991;51.174;4.438;2023-08-06T05:26:24;15.10;99.90
26081;DHT22;13991;51.174;4.438;2023-08-06T05:28:50;15.20;99.90
26081;DHT22;13991;51.174;4.438;2023-08-06T05:31:15;15.20;99.90
26081;DHT22;13991;51.174;4.438;2023-08-06T05:33:41;15.20;99.90
26081;DHT22;13991;51.174;4.438;2023-08-06T05:36:07;15.20;99.90
26081;DHT22;13991;51.174;4.438;2023-08-06T05:38:32;15.20;99.90
26081;DHT22;13991;51.174;4.438;2023-08-06T05:40:59;15.20;99.90
26081;DHT22;13991;51.174;4.438;2023-08-06T05:43:25;15.30;99.90
26081;DHT22;13991;51.174;4.438;2023-08-06T05:45:51;15.30;99.90
26081;DHT22;13991;51.174;4.438;2023-08-06T05:48:18;15.40;99.90
26081;DHT22;13991;51.174;4.438;2023-08-06T05:50:44;15.40;99.90
26081;DHT22;13991;51.174;4.438;2023-08-06T05:53:10;15.50;99.90
26081;DHT22;13991;51.174;4.438;2023-08-06T05:55:37;15.40;99.90
26081;DHT22;13991;51.174;4.438;2023-08-06T05:58:03;15.40;99.90
26081;DHT22;13991;51.174;4.438;2023-08-06T06:00:30;15.50;99.90
26081;DHT22;13991;51.174;4.438;2023-08-06T06:02:58;15.50;99.90
26081;DHT22;13991;51.174;4.438;2023-08-06T06:05:24;15.40;99.90
26081;DHT22;13991;51.174;4.438;2023-08-06T06:07:50;15.40;99.90
26081;DHT22;13991;51.174;4.438;2023-08-06T06:10:17;15.40;99.90
26081;DHT22;13991;51.174;4.438;2023-08-06T06:12:43;15.30;99.90
26081;DHT22;13991;51.174;4.438;2023-08-06T06:15:12;15.20;99.90
26081;DHT22;13991;51.174;4.438;2023-08-06T06:17:38;15.30;99.90
26081;DHT22;13991;51.174;4.438;2023-08-06T06:20:04;15.30;99.90
26081;DHT22;13991;51.174;4.438;2023-08-06T06:22:30;15.30;99.90
26081;DHT22;13991;51.174;4.438;2023-08-06T06:24:56;15.30;99.90
26081;DHT22;13991;51.174;4.438;2023-08-06T06:27:22;15.30;99.90
26081;DHT22;13991;51.174;4.438;2023-08-06T06:29:48;15.30;99.90
26081;DHT22;13991;51.174;4.438;2023-08-06T06:34:50;15.30;99.90
26081;DHT22;13991;51.174;4.438;2023-08-06T06:39:52;15.20;99.90
26081;DHT22;13991;51.174;4.438;2023-08-06T06:42:18;15.10;99.90
26081;DHT22;13991;51.174;4.438;2023-08-06T06:44:44;15.20;99.90
26081;DHT22;13991;51.174;4.438;2023-08-06T06:47:09;15.10;99.90
26081;DHT22;13991;51.174;4.438;2023-08-06T06:49:36;15.10;99.90
26081;DHT22;13991;51.174;4.438;2023-08-06T06:52:02;15.00;99.90
26081;DHT22;13991;51.174;4.438;2023-08-06T06:54:29;15.00;99.90
26081;DHT22;13991;51.174;4.438;2023-08-06T06:56:54;15.00;99.90
26081;DHT22;13991;51.174;4.438;2023-08-06T06:59:20;15.00;99.90
26081;DHT22;13991;51.174;4.438;2023-08-06T07:01:46;15.00;99.90
26081;DHT22;13991;51.174;4.438;2023-08-06T07:04:13;15.10;99.90
26081;DHT22;13991;51.174;4.438;2023-08-06T07:06:39;15.00;99.90
26081;DHT22;13991;51.174;4.438;2023-08-06T07:09:05;15.00;99.90
26081;DHT22;13991;51.174;4.438;2023-08-06T07:11:31;15.10;99.90
26081;DHT22;13991;51.174;4.438;2023-08-06T07:13:58;15.10;99.90
26081;DHT22;13991;51.174;4.438;2023-08-06T07:16:25;15.20;99.90
26081;DHT22;13991;51.174;4.438;2023-08-06T07:18:54;15.20;99.90
26081;DHT22;13991;51.174;4.438;2023-08-06T07:21:20;15.30;99.90
26081;DHT22;13991;51.174;4.438;2023-08-06T07:23:46;15.20;99.90
26081;DHT22;13991;51.174;4.438;2023-08-06T07:26:16;15.20;99.90
26081;DHT22;13991;51.174;4.438;2023-08-06T07:28:42;15.20;99.90
26081;DHT22;13991;51.174;4.438;2023-08-06T07:31:07;15.30;99.90
26081;DHT22;13991;51.174;4.438;2023-08-06T07:33:34;15.10;99.90
26081;DHT22;13991;51.174;4.438;2023-08-06T07:36:10;15.10;99.90
26081;DHT22;13991;51.174;4.438;2023-08-06T07:38:36;15.10;99.90
26081;DHT22;13991;51.174;4.438;2023-08-06T07:41:02;15.00;99.90
26081;DHT22;13991;51.174;4.438;2023-08-06T07:43:28;15.00;99.90
26081;DHT22;13991;51.174;4.438;2023-08-06T07:45:54;15.00;99.90
26081;DHT22;13991;51.174;4.438;2023-08-06T07:48:19;15.00;99.90
26081;DHT22;13991;51.174;4.438;2023-08-06T07:50:45;15.00;99.90
26081;DHT22;13991;51.174;4.438;2023-08-06T07:53:16;15.20;99.90
26081;DHT22;13991;51.174;4.438;2023-08-06T07:55:42;15.20;99.90
26081;DHT22;13991;51.174;4.438;2023-08-06T07:58:08;15.30;99.90
26081;DHT22;13991;51.174;4.438;2023-08-06T08:00:34;15.30;99.90
26081;DHT22;13991;51.174;4.438;2023-08-06T08:03:01;15.20;99.90
26081;DHT22;13991;51.174;4.438;2023-08-06T08:05:27;15.20;99.90
26081;DHT22;13991;51.174;4.438;2023-08-06T08:07:52;15.20;99.90
26081;DHT22;13991;51.174;4.438;2023-08-06T08:10:21;15.30;99.90
26081;DHT22;13991;51.174;4.438;2023-08-06T08:12:47;15.30;99.90
26081;DHT22;13991;51.174;4.438;2023-08-06T08:15:13;15.30;99.90
26081;DHT22;13991;51.174;4.438;2023-08-06T08:17:38;15.40;99.90
26081;DHT22;13991;51.174;4.438;2023-08-06T08:20:04;15.40;99.90
26081;DHT22;13991;51.174;4.438;2023-08-06T08:22:31;15.40;99.90
26081;DHT22;13991;51.174;4.438;2023-08-06T08:24:58;15.30;99.90
26081;DHT22;13991;51.174;4.438;2023-08-06T08:27:23;15.30;99.90
26081;DHT22;13991;51.174;4.438;2023-08-06T08:29:49;15.30;99.90
26081;DHT22;13991;51.174;4.438;2023-08-06T08:43:42;15.20;99.90
26081;DHT22;13991;51.174;4.438;2023-08-06T08:46:09;15.30;99.90
26081;DHT22;13991;51.174;4.438;2023-08-06T08:48:36;15.30;99.90
26081;DHT22;13991;51.174;4.438;2023-08-06T08:51:07;15.40;99.90
26081;DHT22;13991;51.174;4.438;2023-08-06T08:53:33;15.50;99.90
26081;DHT22;13991;51.174;4.438;2023-08-06T08:56:01;15.40;99.90
26081;DHT22;13991;51.174;4.438;2023-08-06T08:58:28;15.50;99.90
26081;DHT22;13991;51.174;4.438;2023-08-06T09:00:54;15.50;99.90
26081;DHT22;13991;51.174;4.438;2023-08-06T09:03:20;15.40;99.90
26081;DHT22;13991;51.174;4.438;2023-08-06T09:05:49;15.60;99.90
26081;DHT22;13991;51.174;4.438;2023-08-06T09:08:18;15.40;99.90
26081;DHT22;13991;51.174;4.438;2023-08-06T09:10:47;15.40;99.90
26081;DHT22;13991;51.174;4.438;2023-08-06T09:13:14;15.40;99.90
26081;DHT22;13991;51.174;4.438;2023-08-06T09:15:40;15.40;99.90
26081;DHT22;13991;51.174;4.438;2023-08-06T09:18:12;15.40;99.90
26081;DHT22;13991;51.174;4.438;2023-08-06T09:20:38;15.30;99.90
26081;DHT22;13991;51.174;4.438;2023-08-06T09:23:09;15.10;99.90
26081;DHT22;13991;51.174;4.438;2023-08-06T09:25:38;15.10;99.90
26081;DHT22;13991;51.174;4.438;2023-08-06T09:28:07;15.10;99.90
26081;DHT22;13991;51.174;4.438;2023-08-06T09:30:36;15.00;99.90
26081;DHT22;13991;51.174;4.438;2023-08-06T09:33:02;15.00;99.90
26081;DHT22;13991;51.174;4.438;2023-08-06T09:35:30;15.00;99.90
26081;DHT22;13991;51.174;4.438;2023-08-06T09:38:06;15.10;99.90
26081;DHT22;13991;51.174;4.438;2023-08-06T09:40:33;14.90;99.90
26081;DHT22;13991;51.174;4.438;2023-08-06T09:42:59;14.90;99.90
26081;DHT22;13991;51.174;4.438;2023-08-06T09:45:34;14.80;99.90
26081;DHT22;13991;51.174;4.438;2023-08-06T09:48:04;14.80;99.90
26081;DHT22;13991;51.174;4.438;2023-08-06T09:50:32;14.70;99.90
26081;DHT22;13991;51.174;4.438;2023-08-06T09:53:00;14.70;99.90
26081;DHT22;13991;51.174;4.438;2023-08-06T09:55:27;14.70;99.90
26081;DHT22;13991;51.174;4.438;2023-08-06T09:57:54;14.80;99.90
26081;DHT22;13991;51.174;4.438;2023-08-06T10:00:21;14.80;99.90
26081;DHT22;13991;51.174;4.438;2023-08-06T10:02:49;14.70;99.90
26081;DHT22;13991;51.174;4.438;2023-08-06T10:05:17;14.60;99.90
26081;DHT22;13991;51.174;4.438;2023-08-06T10:07:47;14.70;99.90
26081;DHT22;13991;51.174;4.438;2023-08-06T10:10:13;14.70;99.90
26081;DHT22;13991;51.174;4.438;2023-08-06T10:12:48;14.60;99.90
26081;DHT22;13991;51.174;4.438;2023-08-06T10:15:17;14.70;99.90
26081;DHT22;13991;51.174;4.438;2023-08-06T10:17:45;14.80;99.90
26081;DHT22;13991;51.174;4.438;2023-08-06T10:20:12;14.80;99.90
26081;DHT22;13991;51.174;4.438;2023-08-06T10:22:43;15.00;99.90
26081;DHT22;13991;51.174;4.438;2023-08-06T10:25:16;15.00;99.90
26081;DHT22;13991;51.174;4.438;2023-08-06T10:30:31;15.10;99.90
26081;DHT22;13991;51.174;4.438;2023-08-06T10:38:14;15.20;99.90
26081;DHT22;13991;51.174;4.438;2023-08-06T10:40:48;15.10;99.90
26081;DHT22;13991;51.174;4.438;2023-08-06T10:43:34;15.10;99.90
26081;DHT22;13991;51.174;4.438;2023-08-06T10:46:02;15.10;99.90
26081;DHT22;13991;51.174;4.438;2023-08-06T10:48:34;14.90;99.90
26081;DHT22;13991;51.174;4.438;2023-08-06T10:51:02;14.70;99.90
26081;DHT22;13991;51.174;4.438;2023-08-06T10:53:29;14.70;99.90
26081;DHT22;13991;51.174;4.438;2023-08-06T10:55:55;14.80;99.90
26081;DHT22;13991;51.174;4.438;2023-08-06T10:58:21;14.90;99.90
26081;DHT22;13991;51.174;4.438;2023-08-06T11:00:47;14.90;99.90
26081;DHT22;13991;51.174;4.438;2023-08-06T11:03:14;15.00;99.90
26081;DHT22;13991;51.174;4.438;2023-08-06T11:05:41;15.00;99.90
26081;DHT22;13991;51.174;4.438;2023-08-06T11:08:26;15.00;99.90
26081;DHT22;13991;51.174;4.438;2023-08-06T11:10:52;15.10;99.90
26081;DHT22;13991;51.174;4.438;2023-08-06T11:13:17;15.00;99.90
26081;DHT22;13991;51.174;4.438;2023-08-06T11:15:46;15.00;99.90
26081;DHT22;13991;51.174;4.438;2023-08-06T11:18:13;15.00;99.90
26081;DHT22;13991;51.174;4.438;2023-08-06T11:20:39;15.10;99.90
26081;DHT22;13991;51.174;4.438;2023-08-06T11:23:06;15.10;99.90
26081;DHT22;13991;51.174;4.438;2023-08-06T11:25:36;15.20;99.90
26081;DHT22;13991;51.174;4.438;2023-08-06T11:28:03;15.20;99.90
26081;DHT22;13991;51.174;4.438;2023-08-06T11:30:29;15.10;99.90
26081;DHT22;13991;51.174;4.438;2023-08-06T11:32:56;15.20;99.90
26081;DHT22;13991;51.174;4.438;2023-08-06T11:35:22;15.20;99.90
26081;DHT22;13991;51.174;4.438;2023-08-06T11:37:49;15.30;99.90
26081;DHT22;13991;51.174;4.438;2023-08-06T11:40:16;15.30;99.90
26081;DHT22;13991;51.174;4.438;2023-08-06T11:42:46;15.50;99.90
26081;DHT22;13991;51.174;4.438;2023-08-06T11:45:11;15.40;99.90
26081;DHT22;13991;51.174;4.438;2023-08-06T11:47:40;15.30;99.90
26081;DHT22;13991;51.174;4.438;2023-08-06T11:50:06;15.10;99.90
26081;DHT22;13991;51.174;4.438;2023-08-06T11:52:32;15.20;99.90
26081;DHT22;13991;51.174;4.438;2023-08-06T11:55:01;15.20;99.90
26081;DHT22;13991;51.174;4.438;2023-08-06T11:57:32;15.00;99.90
26081;DHT22;13991;51.174;4.438;2023-08-06T12:02:34;14.90;99.90
26081;DHT22;13991;51.174;4.438;2023-08-06T12:08:16;14.80;99.90
26081;DHT22;13991;51.174;4.438;2023-08-06T12:10:41;15.00;99.90
26081;DHT22;13991;51.174;4.438;2023-08-06T12:13:07;15.00;99.90
26081;DHT22;13991;51.174;4.438;2023-08-06T12:15:33;15.10;99.90
26081;DHT22;13991;51.174;4.438;2023-08-06T12:17:59;15.10;99.90
26081;DHT22;13991;51.174;4.438;2023-08-06T12:20:25;15.10;99.90
26081;DHT22;13991;51.174;4.438;2023-08-06T12:22:52;15.10;99.90
26081;DHT22;13991;51.174;4.438;2023-08-06T12:25:17;15.10;99.90
26081;DHT22;13991;51.174;4.438;2023-08-06T12:27:44;15.00;99.90
26081;DHT22;13991;51.174;4.438;2023-08-06T12:30:12;14.90;99.90
26081;DHT22;13991;51.174;4.438;2023-08-06T12:32:39;15.00;99.90
26081;DHT22;13991;51.174;4.438;2023-08-06T12:35:06;15.10;99.90
26081;DHT22;13991;51.174;4.438;2023-08-06T12:37:33;15.20;99.90
26081;DHT22;13991;51.174;4.438;2023-08-06T12:40:00;15.20;99.90
26081;DHT22;13991;51.174;4.438;2023-08-06T12:42:27;15.20;99.90
26081;DHT22;13991;51.174;4.438;2023-08-06T12:44:53;15.10;99.90
26081;DHT22;13991;51.174;4.438;2023-08-06T12:47:19;15.00;99.90
26081;DHT22;13991;51.174;4.438;2023-08-06T12:49:45;15.10;99.90
26081;DHT22;13991;51.174;4.438;2023-08-06T12:52:11;15.00;99.90
26081;DHT22;13991;51.174;4.438;2023-08-06T12:54:41;15.00;99.90
26081;DHT22;13991;51.174;4.438;2023-08-06T12:57:08;14.90;99.90
26081;DHT22;13991;51.174;4.438;2023-08-06T12:59:34;14.80;99.90
26081;DHT22;13991;51.174;4.438;2023-08-06T13:02:02;14.80;99.90
26081;DHT22;13991;51.174;4.438;2023-08-06T13:04:28;14.60;99.90
26081;DHT22;13991;51.174;4.438;2023-08-06T13:06:53;14.50;99.90
26081;DHT22;13991;51.174;4.438;2023-08-06T13:09:20;14.50;99.90
26081;DHT22;13991;51.174;4.438;2023-08-06T13:11:47;14.50;99.90
26081;DHT22;13991;51.174;4.438;2023-08-06T13:14:15;14.40;99.90
26081;DHT22;13991;51.174;4.438;2023-08-06T13:16:43;14.40;99.90
26081;DHT22;13991;51.174;4.438;2023-08-06T13:19:09;14.40;99.90
26081;DHT22;13991;51.174;4.438;2023-08-06T13:24:02;14.40;99.90
26081;DHT22;13991;51.174;4.438;2023-08-06T13:26:31;14.40;99.90
26081;DHT22;13991;51.174;4.438;2023-08-06T13:29:00;14.50;99.90
26081;DHT22;13991;51.174;4.438;2023-08-06T13:31:27;14.40;99.90
26081;DHT22;13991;51.174;4.438;2023-08-06T13:33:57;14.50;99.90
26081;DHT22;13991;51.174;4.438;2023-08-06T13:36:26;14.50;99.90
26081;DHT22;13991;51.174;4.438;2023-08-06T13:38:52;14.50;99.90
26081;DHT22;13991;51.174;4.438;2023-08-06T13:41:18;14.40;99.90
26081;DHT22;13991;51.174;4.438;2023-08-06T13:43:44;14.30;99.90
26081;DHT22;13991;51.174;4.438;2023-08-06T13:46:11;14.20;99.90
26081;DHT22;13991;51.174;4.438;2023-08-06T13:48:46;14.20;99.90
26081;DHT22;13991;51.174;4.438;2023-08-06T13:54:53;14.20;99.90
26081;DHT22;13991;51.174;4.438;2023-08-06T13:57:20;14.20;99.90
26081;DHT22;13991;51.174;4.438;2023-08-06T13:59:47;14.30;99.90
26081;DHT22;13991;51.174;4.438;2023-08-06T14:02:13;14.20;99.90
26081;DHT22;13991;51.174;4.438;2023-08-06T14:04:39;14.30;99.90
26081;DHT22;13991;51.174;4.438;2023-08-06T14:07:05;14.40;99.90
26081;DHT22;13991;51.174;4.438;2023-08-06T14:09:31;14.30;99.90
26081;DHT22;13991;51.174;4.438;2023-08-06T14:12:00;14.30;99.90
26081;DHT22;13991;51.174;4.438;2023-08-06T14:14:25;14.40;99.90
26081;DHT22;13991;51.174;4.438;2023-08-06T14:16:55;14.60;99.90
26081;DHT22;13991;51.174;4.438;2023-08-06T14:19:22;14.60;99.90
26081;DHT22;13991;51.174;4.438;2023-08-06T14:21:47;14.60;99.90
26081;DHT22;13991;51.174;4.438;2023-08-06T14:24:13;14.50;99.90
26081;DHT22;13991;51.174;4.438;2023-08-06T14:26:39;14.50;99.90
26081;DHT22;13991;51.174;4.438;2023-08-06T14:29:04;14.40;99.90
26081;DHT22;13991;51.174;4.438;2023-08-06T14:31:31;14.50;99.90
26081;DHT22;13991;51.174;4.438;2023-08-06T14:33:56;14.50;99.90
26081;DHT22;13991;51.174;4.438;2023-08-06T14:36:22;14.60;99.90
26081;DHT22;13991;51.174;4.438;2023-08-06T14:38:49;14.70;99.90
26081;DHT22;13991;51.174;4.438;2023-08-06T14:41:15;14.70;99.90
26081;DHT22;13991;51.174;4.438;2023-08-06T14:43:42;15.00;99.90
26081;DHT22;13991;51.174;4.438;2023-08-06T14:46:08;15.10;99.90
26081;DHT22;13991;51.174;4.438;2023-08-06T14:48:34;15.10;99.90
26081;DHT22;13991;51.174;4.438;2023-08-06T14:51:00;15.10;99.90
26081;DHT22;13991;51.174;4.438;2023-08-06T14:53:26;14.90;99.90
26081;DHT22;13991;51.174;4.438;2023-08-06T14:55:52;15.00;99.90
26081;DHT22;13991;51.174;4.438;2023-08-06T14:58:18;15.00;99.90
26081;DHT22;13991;51.174;4.438;2023-08-06T15:00:45;15.10;99.90
26081;DHT22;13991;51.174;4.438;2023-08-06T15:03:11;15.10;99.90
26081;DHT22;13991;51.174;4.438;2023-08-06T15:05:37;15.10;99.90
26081;DHT22;13991;51.174;4.438;2023-08-06T15:08:02;15.00;99.90
26081;DHT22;13991;51.174;4.438;2023-08-06T15:10:28;15.20;99.90
26081;DHT22;13991;51.174;4.438;2023-08-06T15:12:54;15.00;99.90
26081;DHT22;13991;51.174;4.438;2023-08-06T15:15:20;15.00;99.90
26081;DHT22;13991;51.174;4.438;2023-08-06T15:17:48;15.00;99.90
26081;DHT22;13991;51.174;4.438;2023-08-06T15:20:14;14.90;99.90
26081;DHT22;13991;51.174;4.438;2023-08-06T15:22:40;15.00;99.90
26081;DHT22;13991;51.174;4.438;2023-08-06T15:25:06;15.20;99.90
26081;DHT22;13991;51.174;4.438;2023-08-06T15:27:37;15.20;99.90
26081;DHT22;13991;51.174;4.438;2023-08-06T15:30:03;15.10;99.90
26081;DHT22;13991;51.174;4.438;2023-08-06T15:32:29;15.10;99.90
26081;DHT22;13991;51.174;4.438;2023-08-06T15:34:55;14.90;99.90
26081;DHT22;13991;51.174;4.438;2023-08-06T15:37:22;14.80;99.90
26081;DHT22;13991;51.174;4.438;2023-08-06T15:39:48;14.80;99.90
26081;DHT22;13991;51.174;4.438;2023-08-06T15:42:13;14.80;99.90
26081;DHT22;13991;51.174;4.438;2023-08-06T15:44:40;14.90;99.90
26081;DHT22;13991;51.174;4.438;2023-08-06T15:47:07;14.90;99.90
26081;DHT22;13991;51.174;4.438;2023-08-06T15:49:33;14.90;99.90
26081;DHT22;13991;51.174;4.438;2023-08-06T15:52:00;15.10;99.90
26081;DHT22;13991;51.174;4.438;2023-08-06T15:59:40;15.50;99.90
26081;DHT22;13991;51.174;4.438;2023-08-06T16:02:07;15.50;99.90
26081;DHT22;13991;51.174;4.438;2023-08-06T16:10:29;15.70;99.90
26081;DHT22;13991;51.174;4.438;2023-08-06T16:12:56;15.70;99.90
26081;DHT22;13991;51.174;4.438;2023-08-06T16:15:28;15.70;99.90
26081;DHT22;13991;51.174;4.438;2023-08-06T16:17:53;15.70;99.90
26081;DHT22;13991;51.174;4.438;2023-08-06T16:20:19;15.90;99.90
26081;DHT22;13991;51.174;4.438;2023-08-06T16:22:45;16.00;99.90
26081;DHT22;13991;51.174;4.438;2023-08-06T16:25:14;16.00;99.90